sensor_id;sensor_type;location;lat;lon;timestamp;P1;durP1;ratioP1;P2;durP2;ratioP2
65375;SDS011;51976;47.332;9.404;2024-03-08T00:02:03;12.25;;;7.82;;
65375;SDS011;51976;47.332;9.404;2024-03-08T00:04:28;14.15;;;7.95;;
65375;SDS011;51976;47.332;9.404;2024-03-08T00:06:54;16.52;;;8.25;;
65375;SDS011;51976;47.332;9.404;2024-03-08T00:09:22;14.25;;;8.35;;
65375;SDS011;51976;47.332;9.404;2024-03-08T00:11:48;13.95;;;8.38;;
65375;SDS011;51976;47.332;9.404;2024-03-08T00:14:15;14.82;;;8.32;;
65375;SDS011;51976;47.332;9.404;2024-03-08T00:16:41;13.35;;;8.07;;
65375;SDS011;51976;47.332;9.404;2024-03-08T00:19:09;11.82;;;7.75;;
65375;SDS011;51976;47.332;9.404;2024-03-08T00:21:35;11.88;;;7.50;;
65375;SDS011;51976;47.332;9.404;2024-03-08T00:24:01;13.23;;;8.20;;
65375;SDS011;51976;47.332;9.404;2024-03-08T00:26:29;15.38;;;8.82;;
65375;SDS011;51976;47.332;9.404;2024-03-08T00:28:55;16.90;;;9.43;;
65375;SDS011;51976;47.332;9.404;2024-03-08T00:31:20;16.77;;;7.43;;
65375;SDS011;51976;47.332;9.404;2024-03-08T00:33:46;14.82;;;8.55;;
65375;SDS011;51976;47.332;9.404;2024-03-08T00:36:14;17.15;;;7.95;;
65375;SDS011;51976;47.332;9.404;2024-03-08T00:38:42;17.70;;;7.82;;
65375;SDS011;51976;47.332;9.404;2024-03-08T00:41:08;14.35;;;8.10;;
65375;SDS011;51976;47.332;9.404;2024-03-08T00:43:33;13.60;;;7.85;;
65375;SDS011;51976;47.332;9.404;2024-03-08T00:46:01;12.52;;;7.78;;
65375;SDS011;51976;47.332;9.404;2024-03-08T00:48:30;15.07;;;7.80;;
65375;SDS011;51976;47.332;9.404;2024-03-08T00:50:56;11.43;;;6.80;;
65375;SDS011;51976;47.332;9.404;2024-03-08T00:53:22;12.18;;;6.80;;
65375;SDS011;51976;47.332;9.404;2024-03-08T00:55:47;11.30;;;7.43;;
65375;SDS011;51976;47.332;9.404;2024-03-08T00:58:14;14.93;;;7.95;;
65375;SDS011;51976;47.332;9.404;2024-03-08T01:00:42;23.02;;;8.27;;
65375;SDS011;51976;47.332;9.404;2024-03-08T01:03:08;20.92;;;6.72;;
65375;SDS011;51976;47.332;9.404;2024-03-08T01:05:33;14.90;;;7.50;;
65375;SDS011;51976;47.332;9.404;2024-03-08T01:08:00;62.03;;;16.02;;
65375;SDS011;51976;47.332;9.404;2024-03-08T01:10:26;27.90;;;13.70;;
65375;SDS011;51976;47.332;9.404;2024-03-08T01:12:57;66.25;;;20.33;;
65375;SDS011;51976;47.332;9.404;2024-03-08T01:15:24;142.80;;;50.30;;
65375;SDS011;51976;47.332;9.404;2024-03-08T01:17:52;101.70;;;40.38;;
65375;SDS011;51976;47.332;9.404;2024-03-08T01:20:19;104.40;;;41.67;;
65375;SDS011;51976;47.332;9.404;2024-03-08T01:22:46;47.80;;;17.08;;
65375;SDS011;51976;47.332;9.404;2024-03-08T01:25:14;36.83;;;10.25;;
65375;SDS011;51976;47.332;9.404;2024-03-08T01:27:39;16.05;;;9.25;;
65375;SDS011;51976;47.332;9.404;2024-03-08T01:30:08;14.15;;;8.30;;
65375;SDS011;51976;47.332;9.404;2024-03-08T01:32:34;13.35;;;8.07;;
65375;SDS011;51976;47.332;9.404;2024-03-08T01:35:00;11.90;;;6.88;;
65375;SDS011;51976;47.332;9.404;2024-03-08T01:37:28;17.30;;;6.43;;
65375;SDS011;51976;47.332;9.404;2024-03-08T01:39:54;8.50;;;5.47;;
65375;SDS011;51976;47.332;9.404;2024-03-08T01:42:20;13.65;;;6.82;;
65375;SDS011;51976;47.332;9.404;2024-03-08T01:44:49;11.07;;;6.07;;
65375;SDS011;51976;47.332;9.404;2024-03-08T01:47:19;13.45;;;6.28;;
65375;SDS011;51976;47.332;9.404;2024-03-08T01:49:48;13.30;;;6.70;;
65375;SDS011;51976;47.332;9.404;2024-03-08T01:52:15;12.35;;;7.40;;
65375;SDS011;51976;47.332;9.404;2024-03-08T01:54:48;24.75;;;7.70;;
65375;SDS011;51976;47.332;9.404;2024-03-08T01:57:28;12.55;;;7.78;;
65375;SDS011;51976;47.332;9.404;2024-03-08T01:59:59;14.75;;;7.38;;
65375;SDS011;51976;47.332;9.404;2024-03-08T02:02:28;15.80;;;7.18;;
65375;SDS011;51976;47.332;9.404;2024-03-08T02:05:00;14.80;;;8.55;;
65375;SDS011;51976;47.332;9.404;2024-03-08T02:07:28;13.48;;;7.82;;
65375;SDS011;51976;47.332;9.404;2024-03-08T02:09:54;15.40;;;8.18;;
65375;SDS011;51976;47.332;9.404;2024-03-08T02:12:22;16.83;;;8.40;;
65375;SDS011;51976;47.332;9.404;2024-03-08T02:14:48;12.98;;;7.60;;
65375;SDS011;51976;47.332;9.404;2024-03-08T02:17:14;14.27;;;7.82;;
65375;SDS011;51976;47.332;9.404;2024-03-08T02:19:42;13.70;;;7.22;;
65375;SDS011;51976;47.332;9.404;2024-03-08T02:22:08;13.20;;;7.50;;
65375;SDS011;51976;47.332;9.404;2024-03-08T02:24:36;27.30;;;7.72;;
65375;SDS011;51976;47.332;9.404;2024-03-08T02:27:05;23.00;;;7.18;;
65375;SDS011;51976;47.332;9.404;2024-03-08T02:29:31;11.10;;;6.18;;
65375;SDS011;51976;47.332;9.404;2024-03-08T02:32:02;11.73;;;6.70;;
65375;SDS011;51976;47.332;9.404;2024-03-08T02:34:28;9.98;;;6.50;;
65375;SDS011;51976;47.332;9.404;2024-03-08T02:36:56;9.30;;;5.80;;
65375;SDS011;51976;47.332;9.404;2024-03-08T02:39:22;15.52;;;5.68;;
65375;SDS011;51976;47.332;9.404;2024-03-08T02:41:47;13.20;;;5.72;;
65375;SDS011;51976;47.332;9.404;2024-03-08T02:44:13;10.02;;;6.07;;
65375;SDS011;51976;47.332;9.404;2024-03-08T02:46:40;8.27;;;5.30;;
65375;SDS011;51976;47.332;9.404;2024-03-08T02:49:05;10.13;;;5.28;;
65375;SDS011;51976;47.332;9.404;2024-03-08T02:51:33;7.95;;;4.78;;
65375;SDS011;51976;47.332;9.404;2024-03-08T02:54:01;7.60;;;4.30;;
65375;SDS011;51976;47.332;9.404;2024-03-08T02:56:32;7.75;;;5.13;;
65375;SDS011;51976;47.332;9.404;2024-03-08T02:59:00;6.60;;;4.50;;
65375;SDS011;51976;47.332;9.404;2024-03-08T03:01:25;8.90;;;4.18;;
65375;SDS011;51976;47.332;9.404;2024-03-08T03:03:51;7.05;;;4.28;;
65375;SDS011;51976;47.332;9.404;2024-03-08T03:06:22;5.00;;;3.33;;
65375;SDS011;51976;47.332;9.404;2024-03-08T03:08:48;5.35;;;3.60;;
65375;SDS011;51976;47.332;9.404;2024-03-08T03:11:16;5.70;;;3.75;;
65375;SDS011;51976;47.332;9.404;2024-03-08T03:13:42;6.45;;;3.22;;
65375;SDS011;51976;47.332;9.404;2024-03-08T03:16:16;5.57;;;3.35;;
65375;SDS011;51976;47.332;9.404;2024-03-08T03:18:48;6.25;;;3.35;;
65375;SDS011;51976;47.332;9.404;2024-03-08T03:21:14;5.20;;;3.47;;
65375;SDS011;51976;47.332;9.404;2024-03-08T03:23:51;4.70;;;3.08;;
65375;SDS011;51976;47.332;9.404;2024-03-08T03:26:17;5.63;;;3.53;;
65375;SDS011;51976;47.332;9.404;2024-03-08T03:28:47;6.03;;;3.63;;
65375;SDS011;51976;47.332;9.404;2024-03-08T03:31:18;5.82;;;3.05;;
65375;SDS011;51976;47.332;9.404;2024-03-08T03:33:44;4.78;;;3.28;;
65375;SDS011;51976;47.332;9.404;2024-03-08T03:36:10;4.10;;;2.65;;
65375;SDS011;51976;47.332;9.404;2024-03-08T03:38:36;5.15;;;3.10;;
65375;SDS011;51976;47.332;9.404;2024-03-08T03:41:04;4.70;;;3.10;;
65375;SDS011;51976;47.332;9.404;2024-03-08T03:43:37;7.25;;;4.07;;
65375;SDS011;51976;47.332;9.404;2024-03-08T03:46:07;6.05;;;3.63;;
65375;SDS011;51976;47.332;9.404;2024-03-08T03:48:35;6.47;;;3.80;;
65375;SDS011;51976;47.332;9.404;2024-03-08T03:51:04;5.13;;;3.50;;
65375;SDS011;51976;47.332;9.404;2024-03-08T03:53:33;6.88;;;4.03;;
65375;SDS011;51976;47.332;9.404;2024-03-08T03:56:01;6.15;;;4.10;;
65375;SDS011;51976;47.332;9.404;2024-03-08T03:58:27;6.93;;;4.22;;
65375;SDS011;51976;47.332;9.404;2024-03-08T04:00:56;5.75;;;3.80;;
65375;SDS011;51976;47.332;9.404;2024-03-08T04:03:21;6.47;;;3.80;;
65375;SDS011;51976;47.332;9.404;2024-03-08T04:05:47;6.32;;;4.10;;
65375;SDS011;51976;47.332;9.404;2024-03-08T04:08:16;6.13;;;3.10;;
65375;SDS011;51976;47.332;9.404;2024-03-08T04:10:50;5.53;;;3.08;;
65375;SDS011;51976;47.332;9.404;2024-03-08T04:13:19;7.18;;;3.03;;
65375;SDS011;51976;47.332;9.404;2024-03-08T04:15:54;4.32;;;2.65;;
65375;SDS011;51976;47.332;9.404;2024-03-08T04:18:20;3.28;;;2.40;;
65375;SDS011;51976;47.332;9.404;2024-03-08T04:20:46;4.53;;;2.95;;
65375;SDS011;51976;47.332;9.404;2024-03-08T04:23:11;3.60;;;2.33;;
65375;SDS011;51976;47.332;9.404;2024-03-08T04:25:37;3.28;;;1.90;;
65375;SDS011;51976;47.332;9.404;2024-03-08T04:28:07;3.63;;;2.63;;
65375;SDS011;51976;47.332;9.404;2024-03-08T04:30:37;3.65;;;2.20;;
65375;SDS011;51976;47.332;9.404;2024-03-08T04:33:05;4.72;;;2.80;;
65375;SDS011;51976;47.332;9.404;2024-03-08T04:35:33;3.90;;;2.20;;
65375;SDS011;51976;47.332;9.404;2024-03-08T04:38:02;3.83;;;2.17;;
65375;SDS011;51976;47.332;9.404;2024-03-08T04:40:33;4.63;;;2.58;;
65375;SDS011;51976;47.332;9.404;2024-03-08T04:42:59;4.85;;;2.58;;
65375;SDS011;51976;47.332;9.404;2024-03-08T04:45:30;7.68;;;4.10;;
65375;SDS011;51976;47.332;9.404;2024-03-08T04:47:58;6.97;;;4.32;;
65375;SDS011;51976;47.332;9.404;2024-03-08T04:50:23;10.55;;;4.80;;
65375;SDS011;51976;47.332;9.404;2024-03-08T04:52:49;14.45;;;6.25;;
65375;SDS011;51976;47.332;9.404;2024-03-08T04:55:17;9.77;;;5.15;;
65375;SDS011;51976;47.332;9.404;2024-03-08T04:57:46;8.50;;;4.78;;
65375;SDS011;51976;47.332;9.404;2024-03-08T05:00:21;8.35;;;4.50;;
65375;SDS011;51976;47.332;9.404;2024-03-08T05:02:49;8.35;;;5.22;;
65375;SDS011;51976;47.332;9.404;2024-03-08T05:05:18;6.30;;;3.85;;
65375;SDS011;51976;47.332;9.404;2024-03-08T05:07:47;7.68;;;3.92;;
65375;SDS011;51976;47.332;9.404;2024-03-08T05:10:19;7.07;;;3.83;;
65375;SDS011;51976;47.332;9.404;2024-03-08T05:12:44;7.88;;;4.65;;
65375;SDS011;51976;47.332;9.404;2024-03-08T05:15:13;9.50;;;4.65;;
65375;SDS011;51976;47.332;9.404;2024-03-08T05:17:42;11.20;;;4.93;;
65375;SDS011;51976;47.332;9.404;2024-03-08T05:20:08;10.27;;;5.10;;
65375;SDS011;51976;47.332;9.404;2024-03-08T05:22:37;10.35;;;5.47;;
65375;SDS011;51976;47.332;9.404;2024-03-08T05:25:06;5.90;;;3.47;;
65375;SDS011;51976;47.332;9.404;2024-03-08T05:27:36;8.68;;;4.68;;
65375;SDS011;51976;47.332;9.404;2024-03-08T05:30:07;16.67;;;7.22;;
65375;SDS011;51976;47.332;9.404;2024-03-08T05:32:38;22.45;;;10.82;;
65375;SDS011;51976;47.332;9.404;2024-03-08T05:35:10;38.03;;;21.33;;
65375;SDS011;51976;47.332;9.404;2024-03-08T05:37:37;24.45;;;13.55;;
65375;SDS011;51976;47.332;9.404;2024-03-08T05:40:13;22.13;;;10.93;;
65375;SDS011;51976;47.332;9.404;2024-03-08T05:42:44;19.90;;;10.93;;
65375;SDS011;51976;47.332;9.404;2024-03-08T05:45:10;14.98;;;7.97;;
65375;SDS011;51976;47.332;9.404;2024-03-08T05:47:40;12.15;;;6.45;;
65375;SDS011;51976;47.332;9.404;2024-03-08T05:50:06;13.93;;;6.50;;
65375;SDS011;51976;47.332;9.404;2024-03-08T05:52:36;24.05;;;8.82;;
65375;SDS011;51976;47.332;9.404;2024-03-08T05:55:04;20.63;;;8.50;;
65375;SDS011;51976;47.332;9.404;2024-03-08T05:57:33;13.93;;;6.90;;
65375;SDS011;51976;47.332;9.404;2024-03-08T05:59:58;10.02;;;5.15;;
65375;SDS011;51976;47.332;9.404;2024-03-08T06:02:26;8.25;;;4.32;;
65375;SDS011;51976;47.332;9.404;2024-03-08T06:04:55;6.15;;;3.45;;
65375;SDS011;51976;47.332;9.404;2024-03-08T06:07:21;8.38;;;3.92;;
65375;SDS011;51976;47.332;9.404;2024-03-08T06:09:46;11.65;;;5.20;;
65375;SDS011;51976;47.332;9.404;2024-03-08T06:12:16;14.32;;;5.47;;
65375;SDS011;51976;47.332;9.404;2024-03-08T06:14:44;10.68;;;5.30;;
65375;SDS011;51976;47.332;9.404;2024-03-08T06:17:10;13.00;;;6.07;;
65375;SDS011;51976;47.332;9.404;2024-03-08T06:19:57;13.68;;;6.47;;
65375;SDS011;51976;47.332;9.404;2024-03-08T06:22:22;12.45;;;6.18;;
65375;SDS011;51976;47.332;9.404;2024-03-08T06:24:53;12.40;;;6.53;;
65375;SDS011;51976;47.332;9.404;2024-03-08T06:27:19;12.60;;;6.82;;
65375;SDS011;51976;47.332;9.404;2024-03-08T06:29:45;15.70;;;7.45;;
65375;SDS011;51976;47.332;9.404;2024-03-08T06:32:14;26.35;;;7.30;;
65375;SDS011;51976;47.332;9.404;2024-03-08T06:34:42;12.98;;;6.75;;
65375;SDS011;51976;47.332;9.404;2024-03-08T06:37:22;30.45;;;6.05;;
65375;SDS011;51976;47.332;9.404;2024-03-08T06:39:48;21.90;;;5.72;;
65375;SDS011;51976;47.332;9.404;2024-03-08T06:42:18;10.30;;;5.10;;
65375;SDS011;51976;47.332;9.404;2024-03-08T06:44:56;9.30;;;5.13;;
65375;SDS011;51976;47.332;9.404;2024-03-08T06:47:28;11.82;;;5.45;;
65375;SDS011;51976;47.332;9.404;2024-03-08T06:49:54;14.25;;;5.88;;
65375;SDS011;51976;47.332;9.404;2024-03-08T06:52:20;15.77;;;5.75;;
65375;SDS011;51976;47.332;9.404;2024-03-08T06:54:47;9.50;;;5.65;;
65375;SDS011;51976;47.332;9.404;2024-03-08T06:57:13;15.48;;;6.45;;
65375;SDS011;51976;47.332;9.404;2024-03-08T06:59:42;41.80;;;6.90;;
65375;SDS011;51976;47.332;9.404;2024-03-08T07:02:10;15.70;;;5.78;;
65375;SDS011;51976;47.332;9.404;2024-03-08T07:04:35;29.02;;;5.93;;
65375;SDS011;51976;47.332;9.404;2024-03-08T07:07:05;29.77;;;6.30;;
65375;SDS011;51976;47.332;9.404;2024-03-08T07:09:35;15.77;;;5.68;;
65375;SDS011;51976;47.332;9.404;2024-03-08T07:12:14;37.75;;;6.40;;
65375;SDS011;51976;47.332;9.404;2024-03-08T07:14:40;9.48;;;5.57;;
65375;SDS011;51976;47.332;9.404;2024-03-08T07:17:06;18.05;;;5.40;;
65375;SDS011;51976;47.332;9.404;2024-03-08T07:19:37;19.75;;;5.78;;
65375;SDS011;51976;47.332;9.404;2024-03-08T07:22:03;16.88;;;5.20;;
65375;SDS011;51976;47.332;9.404;2024-03-08T07:27:34;15.20;;;4.32;;
65375;SDS011;51976;47.332;9.404;2024-03-08T07:30:07;8.60;;;4.28;;
65375;SDS011;51976;47.332;9.404;2024-03-08T07:33:00;9.07;;;4.75;;
65375;SDS011;51976;47.332;9.404;2024-03-08T07:35:32;10.85;;;4.90;;
65375;SDS011;51976;47.332;9.404;2024-03-08T07:38:01;7.97;;;5.50;;
65375;SDS011;51976;47.332;9.404;2024-03-08T07:40:40;10.68;;;5.47;;
65375;SDS011;51976;47.332;9.404;2024-03-08T07:43:09;10.95;;;5.47;;
65375;SDS011;51976;47.332;9.404;2024-03-08T07:45:37;11.02;;;5.70;;
65375;SDS011;51976;47.332;9.404;2024-03-08T07:48:10;12.52;;;5.82;;
65375;SDS011;51976;47.332;9.404;2024-03-08T07:50:52;10.25;;;5.68;;
65375;SDS011;51976;47.332;9.404;2024-03-08T07:53:31;12.10;;;5.78;;
65375;SDS011;51976;47.332;9.404;2024-03-08T07:56:02;12.75;;;6.25;;
65375;SDS011;51976;47.332;9.404;2024-03-08T07:58:29;17.65;;;7.07;;
65375;SDS011;51976;47.332;9.404;2024-03-08T08:00:56;13.52;;;7.65;;
65375;SDS011;51976;47.332;9.404;2024-03-08T08:03:22;12.38;;;7.07;;
65375;SDS011;51976;47.332;9.404;2024-03-08T08:05:54;15.75;;;8.70;;
65375;SDS011;51976;47.332;9.404;2024-03-08T08:08:22;23.65;;;10.23;;
65375;SDS011;51976;47.332;9.404;2024-03-08T08:10:49;16.85;;;8.48;;
65375;SDS011;51976;47.332;9.404;2024-03-08T08:13:15;14.73;;;8.38;;
65375;SDS011;51976;47.332;9.404;2024-03-08T08:15:41;15.18;;;7.65;;
65375;SDS011;51976;47.332;9.404;2024-03-08T08:18:07;17.52;;;9.38;;
65375;SDS011;51976;47.332;9.404;2024-03-08T08:20:35;17.13;;;9.43;;
65375;SDS011;51976;47.332;9.404;2024-03-08T08:23:09;13.32;;;7.93;;
65375;SDS011;51976;47.332;9.404;2024-03-08T08:25:39;14.27;;;7.95;;
65375;SDS011;51976;47.332;9.404;2024-03-08T08:28:15;14.80;;;7.60;;
65375;SDS011;51976;47.332;9.404;2024-03-08T08:30:45;20.35;;;8.82;;
65375;SDS011;51976;47.332;9.404;2024-03-08T08:33:17;14.50;;;7.73;;
65375;SDS011;51976;47.332;9.404;2024-03-08T08:35:48;21.08;;;8.30;;
65375;SDS011;51976;47.332;9.404;2024-03-08T08:38:57;27.30;;;9.30;;
65375;SDS011;51976;47.332;9.404;2024-03-08T08:41:41;18.90;;;10.60;;
65375;SDS011;51976;47.332;9.404;2024-03-08T08:44:18;24.08;;;9.35;;
65375;SDS011;51976;47.332;9.404;2024-03-08T08:46:59;19.65;;;10.50;;
65375;SDS011;51976;47.332;9.404;2024-03-08T08:49:57;17.00;;;10.52;;
65375;SDS011;51976;47.332;9.404;2024-03-08T08:52:48;13.93;;;8.75;;
65375;SDS011;51976;47.332;9.404;2024-03-08T08:55:23;16.05;;;8.70;;
65375;SDS011;51976;47.332;9.404;2024-03-08T08:58:11;16.38;;;8.68;;
65375;SDS011;51976;47.332;9.404;2024-03-08T09:00:46;21.70;;;7.95;;
65375;SDS011;51976;47.332;9.404;2024-03-08T09:03:21;13.40;;;8.30;;
65375;SDS011;51976;47.332;9.404;2024-03-08T09:06:03;16.13;;;8.23;;
65375;SDS011;51976;47.332;9.404;2024-03-08T09:08:36;14.98;;;9.30;;
65375;SDS011;51976;47.332;9.404;2024-03-08T09:11:11;13.45;;;8.13;;
65375;SDS011;51976;47.332;9.404;2024-03-08T09:13:40;16.35;;;8.70;;
65375;SDS011;51976;47.332;9.404;2024-03-08T09:16:08;13.90;;;8.27;;
65375;SDS011;51976;47.332;9.404;2024-03-08T09:18:37;12.63;;;8.13;;
65375;SDS011;51976;47.332;9.404;2024-03-08T09:21:09;15.13;;;8.18;;
65375;SDS011;51976;47.332;9.404;2024-03-08T09:23:50;11.30;;;7.35;;
65375;SDS011;51976;47.332;9.404;2024-03-08T09:26:26;13.30;;;7.55;;
65375;SDS011;51976;47.332;9.404;2024-03-08T09:28:52;11.57;;;6.80;;
65375;SDS011;51976;47.332;9.404;2024-03-08T09:34:30;12.82;;;7.32;;
65375;SDS011;51976;47.332;9.404;2024-03-08T09:40:09;12.27;;;6.93;;
65375;SDS011;51976;47.332;9.404;2024-03-08T09:45:22;11.77;;;6.78;;
65375;SDS011;51976;47.332;9.404;2024-03-08T09:47:50;14.30;;;7.38;;
65375;SDS011;51976;47.332;9.404;2024-03-08T09:50:16;13.10;;;7.60;;
65375;SDS011;51976;47.332;9.404;2024-03-08T09:52:46;16.48;;;7.93;;
65375;SDS011;51976;47.332;9.404;2024-03-08T09:55:13;18.58;;;7.93;;
65375;SDS011;51976;47.332;9.404;2024-03-08T09:57:41;14.23;;;8.30;;
65375;SDS011;51976;47.332;9.404;2024-03-08T10:00:31;16.88;;;8.43;;
65375;SDS011;51976;47.332;9.404;2024-03-08T10:03:24;16.27;;;7.70;;
65375;SDS011;51976;47.332;9.404;2024-03-08T10:05:58;13.25;;;7.75;;
65375;SDS011;51976;47.332;9.404;2024-03-08T10:08:31;17.17;;;8.50;;
65375;SDS011;51976;47.332;9.404;2024-03-08T10:10:56;12.45;;;7.40;;
65375;SDS011;51976;47.332;9.404;2024-03-08T10:13:26;13.02;;;8.18;;
65375;SDS011;51976;47.332;9.404;2024-03-08T10:15:53;15.73;;;7.47;;
65375;SDS011;51976;47.332;9.404;2024-03-08T10:18:20;13.27;;;8.45;;
65375;SDS011;51976;47.332;9.404;2024-03-08T10:21:02;13.10;;;7.90;;
65375;SDS011;51976;47.332;9.404;2024-03-08T10:23:29;14.00;;;8.10;;
65375;SDS011;51976;47.332;9.404;2024-03-08T10:25:57;12.80;;;8.02;;
65375;SDS011;51976;47.332;9.404;2024-03-08T10:28:25;13.52;;;8.25;;
65375;SDS011;51976;47.332;9.404;2024-03-08T10:30:50;14.82;;;8.48;;
65375;SDS011;51976;47.332;9.404;2024-03-08T10:33:16;15.80;;;9.65;;
65375;SDS011;51976;47.332;9.404;2024-03-08T10:35:48;15.55;;;9.35;;
65375;SDS011;51976;47.332;9.404;2024-03-08T10:38:17;18.73;;;9.75;;
65375;SDS011;51976;47.332;9.404;2024-03-08T10:40:49;16.73;;;8.55;;
65375;SDS011;51976;47.332;9.404;2024-03-08T10:43:27;13.73;;;8.55;;
65375;SDS011;51976;47.332;9.404;2024-03-08T10:46:21;20.93;;;10.57;;
65375;SDS011;51976;47.332;9.404;2024-03-08T10:49:01;15.00;;;9.10;;
65375;SDS011;51976;47.332;9.404;2024-03-08T10:51:31;16.70;;;10.10;;
65375;SDS011;51976;47.332;9.404;2024-03-08T10:54:03;18.13;;;9.82;;
65375;SDS011;51976;47.332;9.404;2024-03-08T10:56:30;17.40;;;10.25;;
65375;SDS011;51976;47.332;9.404;2024-03-08T10:59:02;18.13;;;10.70;;
65375;SDS011;51976;47.332;9.404;2024-03-08T11:01:29;18.20;;;10.75;;
65375;SDS011;51976;47.332;9.404;2024-03-08T11:04:03;18.63;;;10.63;;
65375;SDS011;51976;47.332;9.404;2024-03-08T11:06:42;18.35;;;11.13;;
65375;SDS011;51976;47.332;9.404;2024-03-08T11:09:28;18.17;;;10.27;;
65375;SDS011;51976;47.332;9.404;2024-03-08T11:13:48;16.92;;;9.93;;
65375;SDS011;51976;47.332;9.404;2024-03-08T11:17:51;21.58;;;11.02;;
65375;SDS011;51976;47.332;9.404;2024-03-08T11:20:23;24.30;;;11.70;;
65375;SDS011;51976;47.332;9.404;2024-03-08T11:23:00;19.85;;;11.30;;
65375;SDS011;51976;47.332;9.404;2024-03-08T11:26:34;18.98;;;10.57;;
65375;SDS011;51976;47.332;9.404;2024-03-08T11:28:29;17.67;;;10.13;;
65375;SDS011;51976;47.332;9.404;2024-03-08T11:31:25;16.50;;;10.18;;
65375;SDS011;51976;47.332;9.404;2024-03-08T11:34:15;16.88;;;9.90;;
65375;SDS011;51976;47.332;9.404;2024-03-08T11:36:49;17.17;;;10.10;;
65375;SDS011;51976;47.332;9.404;2024-03-08T11:39:22;15.20;;;9.45;;
65375;SDS011;51976;47.332;9.404;2024-03-08T11:41:57;20.42;;;12.07;;
65375;SDS011;51976;47.332;9.404;2024-03-08T11:44:31;19.90;;;11.93;;
65375;SDS011;51976;47.332;9.404;2024-03-08T11:46:57;18.30;;;10.48;;
65375;SDS011;51976;47.332;9.404;2024-03-08T11:49:25;16.25;;;9.75;;
65375;SDS011;51976;47.332;9.404;2024-03-08T11:51:52;17.48;;;11.35;;
65375;SDS011;51976;47.332;9.404;2024-03-08T11:54:32;16.45;;;10.13;;
65375;SDS011;51976;47.332;9.404;2024-03-08T11:57:06;21.13;;;11.05;;
65375;SDS011;51976;47.332;9.404;2024-03-08T12:02:08;18.75;;;11.38;;
65375;SDS011;51976;47.332;9.404;2024-03-08T12:04:36;19.77;;;12.18;;
65375;SDS011;51976;47.332;9.404;2024-03-08T12:07:09;16.60;;;10.85;;
65375;SDS011;51976;47.332;9.404;2024-03-08T12:09:37;23.83;;;12.45;;
65375;SDS011;51976;47.332;9.404;2024-03-08T12:12:13;19.08;;;10.90;;
65375;SDS011;51976;47.332;9.404;2024-03-08T12:14:43;21.73;;;12.30;;
65375;SDS011;51976;47.332;9.404;2024-03-08T12:17:09;17.85;;;10.02;;
65375;SDS011;51976;47.332;9.404;2024-03-08T12:19:35;19.20;;;11.38;;
65375;SDS011;51976;47.332;9.404;2024-03-08T12:22:08;18.92;;;10.45;;
65375;SDS011;51976;47.332;9.404;2024-03-08T12:24:35;20.27;;;10.13;;
65375;SDS011;51976;47.332;9.404;2024-03-08T12:27:17;21.13;;;10.90;;
65375;SDS011;51976;47.332;9.404;2024-03-08T12:29:48;21.83;;;11.75;;
65375;SDS011;51976;47.332;9.404;2024-03-08T12:32:35;18.70;;;9.90;;
65375;SDS011;51976;47.332;9.404;2024-03-08T12:35:01;18.00;;;11.05;;
65375;SDS011;51976;47.332;9.404;2024-03-08T12:37:38;21.20;;;10.88;;
65375;SDS011;51976;47.332;9.404;2024-03-08T12:40:17;19.75;;;11.07;;
65375;SDS011;51976;47.332;9.404;2024-03-08T12:42:57;20.80;;;10.70;;
65375;SDS011;51976;47.332;9.404;2024-03-08T12:45:24;21.92;;;11.50;;
65375;SDS011;51976;47.332;9.404;2024-03-08T12:47:50;22.40;;;12.60;;
65375;SDS011;51976;47.332;9.404;2024-03-08T12:50:18;19.17;;;11.02;;
65375;SDS011;51976;47.332;9.404;2024-03-08T12:52:47;20.13;;;11.82;;
65375;SDS011;51976;47.332;9.404;2024-03-08T12:55:17;18.77;;;11.68;;
65375;SDS011;51976;47.332;9.404;2024-03-08T12:57:44;18.85;;;10.57;;
65375;SDS011;51976;47.332;9.404;2024-03-08T13:00:18;17.60;;;11.40;;
65375;SDS011;51976;47.332;9.404;2024-03-08T13:02:48;19.15;;;11.00;;
65375;SDS011;51976;47.332;9.404;2024-03-08T13:05:16;18.48;;;11.23;;
65375;SDS011;51976;47.332;9.404;2024-03-08T13:07:42;22.40;;;11.40;;
65375;SDS011;51976;47.332;9.404;2024-03-08T13:10:14;19.73;;;10.55;;
65375;SDS011;51976;47.332;9.404;2024-03-08T13:12:45;21.80;;;12.27;;
65375;SDS011;51976;47.332;9.404;2024-03-08T13:15:18;19.20;;;11.48;;
65375;SDS011;51976;47.332;9.404;2024-03-08T13:17:47;20.95;;;12.15;;
65375;SDS011;51976;47.332;9.404;2024-03-08T13:20:13;17.25;;;10.93;;
65375;SDS011;51976;47.332;9.404;2024-03-08T13:22:43;19.35;;;11.43;;
65375;SDS011;51976;47.332;9.404;2024-03-08T13:25:09;21.30;;;11.23;;
65375;SDS011;51976;47.332;9.404;2024-03-08T13:27:45;18.63;;;11.57;;
65375;SDS011;51976;47.332;9.404;2024-03-08T13:30:12;25.73;;;12.02;;
65375;SDS011;51976;47.332;9.404;2024-03-08T13:32:45;19.33;;;11.73;;
65375;SDS011;51976;47.332;9.404;2024-03-08T13:35:14;22.92;;;12.07;;
65375;SDS011;51976;47.332;9.404;2024-03-08T13:37:49;21.45;;;12.00;;
65375;SDS011;51976;47.332;9.404;2024-03-08T13:40:16;19.75;;;11.68;;
65375;SDS011;51976;47.332;9.404;2024-03-08T13:42:51;23.48;;;12.65;;
65375;SDS011;51976;47.332;9.404;2024-03-08T13:45:17;19.45;;;11.38;;
65375;SDS011;51976;47.332;9.404;2024-03-08T13:47:46;19.58;;;11.85;;
65375;SDS011;51976;47.332;9.404;2024-03-08T13:50:12;18.08;;;11.43;;
65375;SDS011;51976;47.332;9.404;2024-03-08T13:55:09;17.67;;;11.10;;
65375;SDS011;51976;47.332;9.404;2024-03-08T13:57:44;19.73;;;12.30;;
65375;SDS011;51976;47.332;9.404;2024-03-08T14:00:19;18.75;;;11.70;;
65375;SDS011;51976;47.332;9.404;2024-03-08T14:02:50;22.50;;;12.45;;
65375;SDS011;51976;47.332;9.404;2024-03-08T14:05:16;21.83;;;11.70;;
65375;SDS011;51976;47.332;9.404;2024-03-08T14:07:44;20.40;;;11.98;;
65375;SDS011;51976;47.332;9.404;2024-03-08T14:10:14;20.25;;;12.00;;
65375;SDS011;51976;47.332;9.404;2024-03-08T14:12:42;17.95;;;11.65;;
65375;SDS011;51976;47.332;9.404;2024-03-08T14:15:09;19.05;;;10.80;;
65375;SDS011;51976;47.332;9.404;2024-03-08T14:17:36;19.48;;;11.95;;
65375;SDS011;51976;47.332;9.404;2024-03-08T14:20:05;18.60;;;11.50;;
65375;SDS011;51976;47.332;9.404;2024-03-08T14:22:34;19.42;;;12.00;;
65375;SDS011;51976;47.332;9.404;2024-03-08T14:25:00;18.83;;;11.65;;
65375;SDS011;51976;47.332;9.404;2024-03-08T14:27:27;22.08;;;11.63;;
65375;SDS011;51976;47.332;9.404;2024-03-08T14:29:53;20.38;;;11.80;;
65375;SDS011;51976;47.332;9.404;2024-03-08T14:32:20;19.90;;;12.23;;
65375;SDS011;51976;47.332;9.404;2024-03-08T14:34:48;21.08;;;12.63;;
65375;SDS011;51976;47.332;9.404;2024-03-08T14:37:14;21.88;;;13.23;;
65375;SDS011;51976;47.332;9.404;2024-03-08T14:39:40;24.35;;;11.88;;
65375;SDS011;51976;47.332;9.404;2024-03-08T14:42:06;23.67;;;12.18;;
65375;SDS011;51976;47.332;9.404;2024-03-08T14:47:02;20.67;;;12.48;;
65375;SDS011;51976;47.332;9.404;2024-03-08T14:49:42;18.92;;;11.45;;
65375;SDS011;51976;47.332;9.404;2024-03-08T14:52:24;20.83;;;12.40;;
65375;SDS011;51976;47.332;9.404;2024-03-08T14:55:30;22.88;;;12.13;;
65375;SDS011;51976;47.332;9.404;2024-03-08T14:58:08;21.15;;;12.88;;
65375;SDS011;51976;47.332;9.404;2024-03-08T15:00:36;22.65;;;12.57;;
65375;SDS011;51976;47.332;9.404;2024-03-08T15:03:09;20.85;;;12.68;;
65375;SDS011;51976;47.332;9.404;2024-03-08T15:05:41;21.58;;;11.85;;
65375;SDS011;51976;47.332;9.404;2024-03-08T15:08:16;22.65;;;12.43;;
65375;SDS011;51976;47.332;9.404;2024-03-08T15:10:47;23.13;;;12.18;;
65375;SDS011;51976;47.332;9.404;2024-03-08T15:13:26;19.65;;;11.50;;
65375;SDS011;51976;47.332;9.404;2024-03-08T15:16:08;23.70;;;12.88;;